createdAt,value
2019-03-21T00:00:05.410Z,1032.42
2019-03-21T00:01:02.037Z,1032.42
2019-03-21T00:02:02.317Z,1032.42
2019-03-21T00:03:02.564Z,1032.42
2019-03-21T00:04:01.933Z,1032.42
2019-03-21T00:05:02.319Z,1032.42
2019-03-21T00:06:02.462Z,1032.42
2019-03-21T00:07:01.712Z,1032.37
2019-03-21T00:08:01.931Z,1032.37
2019-03-21T00:09:02.338Z,1032.37
2019-03-21T00:10:02.596Z,1032.37
2019-03-21T00:11:02.102Z,1032.4
2019-03-21T00:12:02.328Z,1032.4
2019-03-21T00:13:02.573Z,1032.4
2019-03-21T00:14:07.667Z,1032.4
2019-03-21T00:15:02.135Z,1032.35
2019-03-21T00:16:02.429Z,1032.35
2019-03-21T00:17:02.701Z,1032.35
2019-03-21T00:18:01.870Z,1032.35
2019-03-21T00:19:02.201Z,1032.39
2019-03-21T00:20:02.471Z,1032.39
2019-03-21T00:21:02.632Z,1032.39
2019-03-21T00:22:01.791Z,1032.39
2019-03-21T00:23:02.133Z,1032.42
2019-03-21T00:24:02.416Z,1032.42
2019-03-21T00:25:01.840Z,1032.42
2019-03-21T00:26:02.132Z,1032.42
2019-03-21T00:27:02.296Z,1032.32
2019-03-21T00:28:02.576Z,1032.32
2019-03-21T00:29:01.842Z,1032.32
2019-03-21T00:30:02.132Z,1032.32
2019-03-21T00:31:06.841Z,1032.37
2019-03-21T00:32:02.576Z,1032.37
2019-03-21T00:33:02.420Z,1032.37
2019-03-21T00:34:01.749Z,1032.37
2019-03-21T00:35:02.007Z,1032.35
2019-03-21T00:36:02.213Z,1032.35
2019-03-21T00:37:02.445Z,1032.35
2019-03-21T00:38:01.707Z,1032.35
2019-03-21T00:39:01.958Z,1032.42
2019-03-21T00:40:02.296Z,1032.42
2019-03-21T00:41:02.458Z,1032.42
2019-03-21T00:42:02.551Z,1032.42
2019-03-21T00:43:01.698Z,1032.38
2019-03-21T00:44:01.961Z,1032.38
2019-03-21T00:45:02.644Z,1032.38
2019-03-21T00:46:01.940Z,1032.38
2019-03-21T00:47:02.161Z,1032.43
2019-03-21T00:48:02.359Z,1032.43
2019-03-21T00:49:01.673Z,1032.43
2019-03-21T00:50:01.925Z,1032.43
2019-03-21T00:51:02.508Z,1032.33
2019-03-21T00:52:01.637Z,1032.33
2019-03-21T00:53:01.980Z,1032.33
2019-03-21T00:54:02.212Z,1032.33
2019-03-21T00:55:02.488Z,1032.36
2019-03-21T00:56:01.853Z,1032.36
2019-03-21T00:57:02.036Z,1032.36
2019-03-21T00:58:02.364Z,1032.36
2019-03-21T00:59:02.694Z,1032.16
2019-03-21T01:00:03.535Z,1032.16
2019-03-21T01:01:02.419Z,1032.16
2019-03-21T01:02:01.924Z,1032.16
2019-03-21T01:03:04.217Z,1032.29
2019-03-21T01:04:02.136Z,1032.29
2019-03-21T01:05:02.633Z,1032.29
2019-03-21T01:06:01.867Z,1032.29
2019-03-21T01:07:02.161Z,1032.23
2019-03-21T01:08:02.436Z,1032.23
2019-03-21T01:09:02.616Z,1032.23
2019-03-21T01:10:01.947Z,1032.23
2019-03-21T01:11:02.202Z,1032.28
2019-03-21T01:12:02.500Z,1032.28
2019-03-21T01:13:02.782Z,1032.28
2019-03-21T01:14:01.963Z,1032.28
2019-03-21T01:15:02.346Z,1032.28
2019-03-21T01:16:02.483Z,1032.28
2019-03-21T01:17:01.932Z,1032.28
2019-03-21T01:18:01.955Z,1032.28
2019-03-21T01:19:02.187Z,1032.13
2019-03-21T01:20:02.524Z,1032.13
2019-03-21T01:21:01.752Z,1032.13
2019-03-21T01:22:02.056Z,1032.19
2019-03-21T01:23:02.190Z,1032.19
2019-03-21T01:24:02.575Z,1032.19
2019-03-21T01:25:01.696Z,1032.19
2019-03-21T01:26:02.205Z,1032.31
2019-03-21T01:27:02.198Z,1032.31
2019-03-21T01:28:02.623Z,1032.31
2019-03-21T01:29:01.868Z,1032.31
2019-03-21T01:30:02.151Z,1032.25
2019-03-21T01:31:02.453Z,1032.25
2019-03-21T01:32:02.668Z,1032.25
2019-03-21T01:33:01.955Z,1032.25
2019-03-21T01:34:02.226Z,1032.23
2019-03-21T10:20:02.123Z,1032.23
2019-03-21T10:21:02.238Z,1033.65
2019-03-21T10:22:02.445Z,1033.65
2019-03-21T10:23:01.634Z,1033.65
2019-03-21T10:24:01.892Z,1033.65
2019-03-21T10:25:02.193Z,1033.71
2019-03-21T10:26:02.343Z,1033.71
2019-03-21T10:27:02.623Z,1033.71
2019-03-21T10:28:01.756Z,1033.71
2019-03-21T10:29:02.020Z,1033.6
2019-03-21T10:30:02.295Z,1033.6
2019-03-21T10:31:02.557Z,1033.6
2019-03-21T10:32:01.716Z,1033.6
2019-03-21T10:33:02.017Z,1033.65
2019-03-21T10:34:02.163Z,1033.65
2019-03-21T10:35:02.360Z,1033.65
2019-03-21T10:36:02.564Z,1033.65
2019-03-21T10:37:01.774Z,1033.65
2019-03-21T10:38:02.062Z,1033.65
2019-03-21T10:39:02.084Z,1033.65
2019-03-21T10:40:01.748Z,1033.65
2019-03-21T10:41:01.916Z,1033.71
2019-03-21T10:42:02.134Z,1033.71
2019-03-21T10:43:02.018Z,1033.71
2019-03-21T10:44:02.196Z,1033.71
2019-03-21T10:45:02.473Z,1033.69
2019-03-21T10:46:01.648Z,1033.69
2019-03-21T10:47:01.913Z,1033.69
2019-03-21T10:48:02.039Z,1033.69
2019-03-21T10:49:02.286Z,1033.73
2019-03-21T10:50:02.464Z,1033.73
2019-03-21T10:51:01.686Z,1033.73
2019-03-21T10:52:01.999Z,1033.73
2019-03-21T10:53:02.103Z,1033.7
2019-03-21T10:54:02.356Z,1033.7
2019-03-21T10:55:02.426Z,1033.7
2019-03-21T10:56:02.564Z,1033.7
2019-03-21T10:57:01.885Z,1033.74
2019-03-21T10:58:01.810Z,1033.74
2019-03-21T10:59:02.015Z,1033.74
2019-03-21T11:00:03.538Z,1033.74
2019-03-21T11:01:02.384Z,1033.69
2019-03-21T11:02:07.969Z,1033.69
2019-03-21T11:03:01.806Z,1033.69
2019-03-21T11:04:01.809Z,1033.69
2019-03-21T11:05:01.892Z,1033.52
2019-03-21T11:06:02.100Z,1033.52
2019-03-21T11:07:02.413Z,1033.52
2019-03-21T11:08:01.651Z,1033.52
2019-03-21T11:09:02.022Z,1033.6
2019-03-21T11:10:02.274Z,1033.6
2019-03-21T11:11:02.543Z,1033.6
2019-03-21T11:12:01.771Z,1033.6
2019-03-21T11:13:01.988Z,1033.74
2019-03-21T11:14:02.282Z,1033.74
2019-03-21T11:15:02.379Z,1033.74
2019-03-21T11:16:02.506Z,1033.74
2019-03-21T11:17:01.730Z,1033.68
2019-03-21T11:18:01.932Z,1033.68
2019-03-21T11:19:02.079Z,1033.68
2019-03-21T11:20:02.393Z,1033.68
2019-03-21T11:21:02.600Z,1033.62
2019-03-21T11:22:07.066Z,1033.62
2019-03-21T11:23:02.089Z,1033.62
2019-03-21T11:24:02.260Z,1033.62
2019-03-21T11:25:02.542Z,1033.65
2019-03-21T11:26:01.700Z,1033.65
2019-03-21T11:27:01.916Z,1033.65
2019-03-21T11:28:02.167Z,1033.58
2019-03-21T11:29:02.365Z,1033.58
2019-03-21T11:30:01.668Z,1033.58
2019-03-21T11:31:01.816Z,1033.58
2019-03-21T11:32:02.144Z,1033.58
2019-03-21T11:33:02.230Z,1033.58
2019-03-21T11:34:02.469Z,1033.58
2019-03-21T11:35:01.674Z,1033.58
2019-03-21T11:36:02.262Z,1033.58
2019-03-21T11:37:02.541Z,1033.58
2019-03-21T11:38:01.697Z,1033.58
2019-03-21T11:39:01.988Z,1033.58
2019-03-21T11:40:02.249Z,1033.63
2019-03-21T11:41:02.479Z,1033.63
2019-03-21T11:42:02.366Z,1033.63
2019-03-21T11:43:02.351Z,1033.63
2019-03-21T11:44:02.653Z,1033.67
2019-03-21T11:45:01.875Z,1033.67
2019-03-21T11:46:02.158Z,1033.67
2019-03-21T11:47:02.275Z,1033.67
2019-03-21T11:48:02.482Z,1033.64
2019-03-21T11:49:01.677Z,1033.64
2019-03-21T11:50:02.071Z,1033.64
2019-03-21T11:51:02.144Z,1033.64
2019-03-21T11:52:02.434Z,1033.62
2019-03-21T11:53:02.564Z,1033.62
2019-03-21T11:54:01.795Z,1033.62
2019-03-21T11:55:02.073Z,1033.62
2019-03-21T11:56:02.253Z,1033.61
2019-03-21T11:57:02.506Z,1033.61
2019-03-21T11:58:02.260Z,1033.61
2019-03-21T11:59:02.350Z,1033.61
2019-03-21T12:00:04.621Z,1033.53
2019-03-21T12:01:02.493Z,1033.53
2019-03-21T12:02:01.735Z,1033.53
2019-03-21T12:03:04.659Z,1033.53
2019-03-21T12:04:02.134Z,1033.55
2019-03-21T12:05:02.304Z,1033.55
2019-03-21T12:06:02.474Z,1033.55
2019-03-21T12:07:01.727Z,1033.55
2019-03-21T12:08:02.526Z,1033.57
2019-03-21T12:09:01.699Z,1033.57
2019-03-21T12:10:01.969Z,1033.57
2019-03-21T12:11:02.180Z,1033.57
2019-03-21T12:12:02.431Z,1033.68
2019-03-21T12:13:02.627Z,1033.68
2019-03-21T12:14:01.761Z,1033.68
2019-03-21T12:15:02.038Z,1033.68
2019-03-21T12:16:02.343Z,1033.51
2019-03-21T12:17:02.561Z,1033.51
2019-03-21T12:18:01.861Z,1033.51
2019-03-21T12:19:01.968Z,1033.51
2019-03-21T12:20:02.212Z,1033.56
2019-03-21T12:21:02.464Z,1033.56
2019-03-21T12:22:02.614Z,1033.56
2019-03-21T12:23:01.876Z,1033.56
2019-03-21T12:24:02.042Z,1033.52
2019-03-21T12:25:02.244Z,1033.52
2019-03-21T12:26:02.397Z,1033.52
2019-03-21T12:27:01.649Z,1033.52
2019-03-21T12:28:02.041Z,1033.5
2019-03-21T12:29:02.037Z,1033.5
2019-03-21T12:30:02.663Z,1033.5
2019-03-21T12:31:01.891Z,1033.5
2019-03-21T12:32:02.051Z,1033.51
2019-03-21T12:33:02.247Z,1033.51
2019-03-21T12:34:02.196Z,1033.51
2019-03-21T12:35:02.475Z,1033.51
2019-03-21T12:36:02.662Z,1033.42
2019-03-21T12:37:01.996Z,1033.42
2019-03-21T12:38:02.187Z,1033.42
2019-03-21T12:39:02.461Z,1033.42
2019-03-21T12:40:02.640Z,1033.46
2019-03-21T12:41:02.610Z,1033.46
2019-03-21T12:42:01.777Z,1033.46
2019-03-21T12:43:01.964Z,1033.46
2019-03-21T12:44:02.263Z,1033.44
2019-03-21T12:45:02.541Z,1033.44
2019-03-21T12:46:02.634Z,1033.44
2019-03-21T12:47:01.817Z,1033.44
2019-03-21T12:48:02.102Z,1033.54
2019-03-21T12:49:02.301Z,1033.54
2019-03-21T12:50:02.429Z,1033.54
2019-03-21T12:51:02.615Z,1033.54
2019-03-21T12:52:01.807Z,1033.62
2019-03-21T12:53:01.998Z,1033.62
2019-03-21T12:54:02.183Z,1033.62
2019-03-21T12:55:02.433Z,1033.62
2019-03-21T12:56:02.637Z,1033.67
2019-03-21T12:57:01.808Z,1033.67
2019-03-21T12:58:02.152Z,1033.67
2019-03-21T12:59:02.334Z,1033.67
2019-03-21T13:00:03.256Z,1033.56
2019-03-21T13:01:02.066Z,1033.56
2019-03-21T13:02:02.337Z,1033.56
2019-03-21T13:03:02.537Z,1033.56
2019-03-21T13:04:01.747Z,1033.69
2019-03-21T13:05:01.963Z,1033.69
2019-03-21T13:06:02.099Z,1033.69
2019-03-21T13:07:02.292Z,1033.69
2019-03-21T13:08:02.397Z,1033.55
2019-03-21T13:09:01.657Z,1033.55
2019-03-21T13:10:01.703Z,1033.55
2019-03-21T13:11:01.900Z,1033.67
2019-03-21T13:12:02.040Z,1033.67
2019-03-21T13:13:02.342Z,1033.67
2019-03-21T13:14:02.439Z,1033.67
2019-03-21T13:15:01.670Z,1033.6
2019-03-21T13:16:01.876Z,1033.6
2019-03-21T13:17:02.155Z,1033.6
2019-03-21T13:18:02.432Z,1033.6
2019-03-21T13:19:02.464Z,1033.5
2019-03-21T13:20:01.679Z,1033.5
2019-03-21T13:21:01.717Z,1033.5
2019-03-21T13:22:02.040Z,1033.5
2019-03-21T13:23:02.272Z,1033.48
2019-03-21T13:24:02.531Z,1033.48
2019-03-21T13:25:01.809Z,1033.48
2019-03-21T13:26:01.887Z,1033.48
2019-03-21T13:27:02.183Z,1033.49
2019-03-21T13:28:02.344Z,1033.49
2019-03-21T13:29:02.512Z,1033.49
2019-03-21T13:30:04.041Z,1033.49
2019-03-21T13:31:01.847Z,1033.41
2019-03-21T13:32:02.126Z,1033.41
2019-03-21T13:33:02.321Z,1033.41
2019-03-21T13:34:01.920Z,1033.41
2019-03-21T13:35:02.185Z,1033.51
2019-03-21T13:36:02.420Z,1033.51
2019-03-21T13:37:01.660Z,1033.51
2019-03-21T13:38:01.837Z,1033.51
2019-03-21T13:39:01.893Z,1033.35
2019-03-21T13:40:02.186Z,1033.35
2019-03-21T13:41:02.260Z,1033.35
2019-03-21T13:42:02.497Z,1033.35
2019-03-21T13:43:01.780Z,1033.27
2019-03-21T13:44:01.993Z,1033.27
2019-03-21T13:45:02.234Z,1033.27
2019-03-21T13:46:02.397Z,1033.27
2019-03-21T13:47:02.654Z,1033.31
2019-03-21T13:48:01.906Z,1033.31
2019-03-21T13:49:02.043Z,1033.31
2019-03-21T13:50:02.287Z,1033.31
2019-03-21T13:51:02.561Z,1033.46
2019-03-21T13:52:01.721Z,1033.46
2019-03-21T13:53:18.153Z,1033.46
2019-03-21T13:54:02.228Z,1033.46
2019-03-21T13:55:02.454Z,1033.33
2019-03-21T13:56:02.707Z,1033.33
2019-03-21T13:57:01.872Z,1033.33
2019-03-21T13:58:02.040Z,1033.33
2019-03-21T13:59:02.319Z,1033.25
2019-03-21T14:00:03.962Z,1033.25
2019-03-21T14:01:01.855Z,1033.25
2019-03-21T14:02:02.018Z,1033.25
2019-03-21T14:03:02.229Z,1033.19
2019-03-21T14:04:02.482Z,1033.19
2019-03-21T14:05:02.700Z,1033.19
2019-03-21T14:06:01.741Z,1033.19
2019-03-21T14:07:01.963Z,1033.14
2019-03-21T14:08:02.081Z,1033.14
2019-03-21T14:09:02.339Z,1033.14
2019-03-21T14:10:02.644Z,1033.14
2019-03-21T14:11:01.787Z,1033.17
2019-03-21T14:12:02.167Z,1033.17
2019-03-21T14:13:02.401Z,1033.17
2019-03-21T14:14:01.704Z,1033.17
2019-03-21T14:15:01.991Z,1033.09
2019-03-21T14:16:02.003Z,1033.09
2019-03-21T14:17:02.129Z,1033.09
2019-03-21T14:18:02.313Z,1033.09
2019-03-21T14:19:02.207Z,1033.04
2019-03-21T14:20:02.617Z,1033.04
2019-03-21T14:21:01.659Z,1033.04
2019-03-21T14:22:01.828Z,1033.04
2019-03-21T14:23:02.073Z,1033.04
2019-03-21T14:24:02.347Z,1033.04
2019-03-21T14:25:01.842Z,1033.04
2019-03-21T14:26:01.921Z,1033.04
2019-03-21T14:27:02.199Z,1032.98
2019-03-21T14:28:02.423Z,1032.98
2019-03-21T14:29:13.309Z,1032.98
2019-03-21T14:30:02.720Z,1032.98
2019-03-21T14:31:02.081Z,1032.95
2019-03-21T14:32:02.406Z,1032.95
2019-03-21T14:33:02.333Z,1032.95
2019-03-21T14:34:02.440Z,1032.95
2019-03-21T14:35:01.716Z,1032.96
2019-03-21T14:36:01.911Z,1032.96
2019-03-21T14:37:01.965Z,1032.96
2019-03-21T14:38:02.107Z,1032.96
2019-03-21T14:39:02.371Z,1032.88
2019-03-21T14:40:02.588Z,1032.88
2019-03-21T14:41:01.761Z,1032.88
2019-03-21T14:42:01.963Z,1032.88
2019-03-21T14:43:02.173Z,1032.88
2019-03-21T14:44:02.480Z,1032.88
2019-03-21T14:45:02.614Z,1032.88
2019-03-21T14:46:01.790Z,1032.88
2019-03-21T14:47:02.129Z,1032.91
2019-03-21T14:48:01.970Z,1032.91
2019-03-21T14:49:02.160Z,1032.91
2019-03-21T14:50:02.358Z,1032.91
2019-03-21T14:51:02.572Z,1032.98
2019-03-21T14:52:01.896Z,1032.98
2019-03-21T14:53:01.984Z,1032.98
2019-03-21T14:54:01.996Z,1032.89
2019-03-21T14:55:01.908Z,1032.89
2019-03-21T14:56:01.981Z,1032.89
2019-03-21T14:57:02.300Z,1032.89
2019-03-21T14:58:02.377Z,1032.92
2019-03-21T14:59:01.618Z,1032.92
2019-03-21T15:00:04.230Z,1032.92
2019-03-21T15:01:01.773Z,1032.92
2019-03-21T15:02:02.222Z,1032.87
2019-03-21T15:03:02.312Z,1032.87
2019-03-21T15:04:02.400Z,1032.87
2019-03-21T15:05:01.723Z,1032.87
2019-03-21T15:06:01.857Z,1032.88
2019-03-21T15:07:02.056Z,1032.88
2019-03-21T15:08:02.286Z,1032.88
2019-03-21T15:09:02.375Z,1032.88
2019-03-21T15:10:02.730Z,1032.88
2019-03-21T15:11:01.877Z,1032.88
2019-03-21T15:12:02.433Z,1032.88
2019-03-21T15:13:02.410Z,1032.88
2019-03-21T15:14:02.506Z,1032.94
2019-03-21T15:15:01.937Z,1032.94
2019-03-21T15:16:02.008Z,1032.94
2019-03-21T15:17:02.245Z,1032.94
2019-03-21T15:18:02.462Z,1032.94
2019-03-21T15:19:02.703Z,1032.94
2019-03-21T15:20:01.804Z,1032.94
2019-03-21T15:21:02.037Z,1032.94
2019-03-21T15:22:02.202Z,1032.86
2019-03-21T15:23:01.619Z,1032.86
2019-03-21T15:24:01.929Z,1032.86
2019-03-21T15:25:02.346Z,1032.86
2019-03-21T15:26:02.468Z,1032.78
2019-03-21T15:27:01.633Z,1032.78
2019-03-21T15:28:01.659Z,1032.78
2019-03-21T15:29:01.966Z,1032.78
2019-03-21T15:30:02.313Z,1032.81
2019-03-21T15:31:02.258Z,1032.81
2019-03-21T15:32:02.573Z,1032.81
2019-03-21T15:33:02.673Z,1032.81
2019-03-21T15:34:02.208Z,1032.74
2019-03-21T15:35:02.316Z,1032.74
2019-03-21T15:36:02.635Z,1032.74
2019-03-21T15:37:02.005Z,1032.74
2019-03-21T15:38:01.958Z,1032.71
2019-03-21T15:39:02.325Z,1032.71
2019-03-21T15:40:02.402Z,1032.71
2019-03-21T15:41:02.661Z,1032.71
2019-03-21T15:42:01.827Z,1032.73
2019-03-21T15:43:02.117Z,1032.73
2019-03-21T15:44:02.274Z,1032.73
2019-03-21T15:45:23.610Z,1032.73
2019-03-21T15:46:02.364Z,1032.55
2019-03-21T15:47:02.608Z,1032.55
2019-03-21T15:48:01.684Z,1032.55
2019-03-21T15:49:02.063Z,1032.55
2019-03-21T15:50:02.286Z,1032.71
2019-03-21T15:51:05.440Z,1032.71
2019-03-21T15:52:02.739Z,1032.71
2019-03-21T15:53:01.880Z,1032.71
2019-03-21T15:54:02.170Z,1032.79
2019-03-21T15:55:02.518Z,1032.79
2019-03-21T15:56:02.464Z,1032.79
2019-03-21T15:57:01.681Z,1032.79
2019-03-21T15:58:01.917Z,1032.82
2019-03-21T15:59:02.157Z,1032.82
2019-03-21T16:00:02.525Z,1032.82
2019-03-21T16:01:02.675Z,1032.82
2019-03-21T16:02:01.955Z,1032.71
2019-03-21T16:03:02.200Z,1032.71
2019-03-21T16:04:02.390Z,1032.71
2019-03-21T16:05:02.626Z,1032.71
2019-03-21T16:06:01.726Z,1032.58
2019-03-21T16:07:02.062Z,1032.58
2019-03-21T16:08:02.193Z,1032.58
2019-03-21T16:09:02.352Z,1032.58
2019-03-21T16:10:02.822Z,1032.62
2019-03-21T16:11:01.933Z,1032.62
2019-03-21T16:12:02.091Z,1032.62
2019-03-21T16:13:02.396Z,1032.62
2019-03-21T16:14:02.543Z,1032.68
2019-03-21T16:15:01.785Z,1032.68
2019-03-21T16:16:02.029Z,1032.68
2019-03-21T16:17:02.180Z,1032.68
2019-03-21T16:18:02.528Z,1032.55
2019-03-21T16:19:02.655Z,1032.55
2019-03-21T16:20:02.049Z,1032.55
2019-03-21T16:21:02.135Z,1032.55
2019-03-21T16:22:02.439Z,1032.63
2019-03-21T16:23:02.629Z,1032.63
2019-03-21T16:24:06.151Z,1032.63
2019-03-21T16:25:02.044Z,1032.63
2019-03-21T16:26:02.332Z,1032.73
2019-03-21T16:27:02.206Z,1032.73
2019-03-21T16:28:02.272Z,1032.73
2019-03-21T16:29:02.247Z,1032.73
2019-03-21T16:30:02.596Z,1032.66
2019-03-21T16:31:01.809Z,1032.66
2019-03-21T16:32:02.819Z,1032.66
2019-03-21T16:33:01.804Z,1032.66
2019-03-21T16:34:02.082Z,1032.77
2019-03-21T16:35:02.427Z,1032.77
2019-03-21T16:36:02.654Z,1032.77
2019-03-21T16:37:01.738Z,1032.58
2019-03-21T16:38:02.000Z,1032.58
2019-03-21T16:39:02.114Z,1032.58
2019-03-21T16:40:02.367Z,1032.58
2019-03-21T16:41:02.714Z,1032.5
2019-03-21T16:42:01.826Z,1032.5
2019-03-21T16:43:02.154Z,1032.5
2019-03-21T16:44:02.154Z,1032.5
2019-03-21T16:45:02.620Z,1032.58
2019-03-21T16:46:01.752Z,1032.58
2019-03-21T16:47:01.882Z,1032.58
2019-03-21T16:48:02.031Z,1032.58
2019-03-21T16:49:02.239Z,1032.71
2019-03-21T16:50:02.482Z,1032.71
2019-03-21T16:51:03.512Z,1032.71
2019-03-21T16:52:02.001Z,1032.71
2019-03-21T16:53:02.197Z,1032.67
2019-03-21T16:54:02.434Z,1032.67
2019-03-21T16:55:02.695Z,1032.67
2019-03-21T16:56:01.815Z,1032.67
2019-03-21T16:57:02.083Z,1032.7
2019-03-21T16:58:02.318Z,1032.7
2019-03-21T16:59:03.200Z,1032.7
2019-03-21T17:00:11.676Z,1032.7
2019-03-21T17:01:02.387Z,1032.62
2019-03-21T17:02:01.719Z,1032.62
2019-03-21T17:03:01.887Z,1032.62
2019-03-21T17:04:02.143Z,1032.62
2019-03-21T17:05:02.447Z,1032.65
2019-03-21T17:06:02.621Z,1032.65
2019-03-21T17:07:02.012Z,1032.65
2019-03-21T17:08:11.966Z,1032.65
2019-03-21T17:09:02.164Z,1032.69
2019-03-21T17:10:02.424Z,1032.69
2019-03-21T17:11:02.743Z,1032.69
2019-03-21T17:12:01.926Z,1032.69
2019-03-21T17:13:06.444Z,1032.63
2019-03-21T17:14:02.272Z,1032.63
2019-03-21T17:15:02.502Z,1032.63
2019-03-21T17:16:01.738Z,1032.63
2019-03-21T17:17:02.065Z,1032.62
2019-03-21T17:18:02.296Z,1032.62
2019-03-21T17:19:02.066Z,1032.62
2019-03-21T17:20:04.190Z,1032.62
2019-03-21T17:21:02.620Z,1032.66
2019-03-21T17:22:02.901Z,1032.66
2019-03-21T17:23:01.776Z,1032.66
2019-03-21T17:24:02.035Z,1032.66
2019-03-21T17:25:02.298Z,1032.83
2019-03-21T17:26:02.489Z,1032.83
2019-03-21T17:27:01.918Z,1032.83
2019-03-21T17:28:01.891Z,1032.83
2019-03-21T17:29:02.250Z,1032.81
2019-03-21T17:30:02.430Z,1032.81
2019-03-21T17:31:02.528Z,1032.81
2019-03-21T17:32:01.864Z,1032.81
2019-03-21T17:33:02.037Z,1032.69
2019-03-21T17:34:04.574Z,1032.69
2019-03-21T17:35:02.552Z,1032.69
2019-03-21T17:36:01.841Z,1032.69
2019-03-21T17:37:01.992Z,1032.81
2019-03-21T17:38:02.207Z,1032.81
2019-03-21T17:39:02.400Z,1032.81
2019-03-21T17:40:01.776Z,1032.81
2019-03-21T17:41:02.047Z,1032.72
2019-03-21T17:42:02.125Z,1032.72
2019-03-21T17:43:02.320Z,1032.72
2019-03-21T17:44:02.654Z,1032.72
2019-03-21T17:45:01.878Z,1032.74
2019-03-21T17:46:02.152Z,1032.74
2019-03-21T17:47:02.299Z,1032.74
2019-03-21T17:48:02.578Z,1032.74
2019-03-21T17:49:02.344Z,1032.76
2019-03-21T17:50:02.678Z,1032.76
2019-03-21T17:51:02.770Z,1032.76
2019-03-21T17:52:01.843Z,1032.76
2019-03-21T17:53:02.028Z,1032.87
2019-03-21T17:54:02.335Z,1032.87
2019-03-21T17:55:02.505Z,1032.87
2019-03-21T17:56:01.693Z,1032.87
2019-03-21T17:57:01.919Z,1032.81
2019-03-21T17:58:02.296Z,1032.81
2019-03-21T17:59:02.382Z,1032.81
2019-03-21T18:00:04.364Z,1032.81
2019-03-21T18:01:02.219Z,1032.86
2019-03-21T18:02:02.307Z,1032.86
2019-03-21T18:03:02.638Z,1032.86
2019-03-21T18:04:01.790Z,1032.86
2019-03-21T18:05:02.021Z,1032.94
2019-03-21T18:06:02.147Z,1032.94
2019-03-21T18:07:02.335Z,1032.94
2019-03-21T18:08:02.705Z,1032.94
2019-03-21T18:09:02.512Z,1032.8
2019-03-21T18:10:01.796Z,1032.8
2019-03-21T18:11:01.948Z,1032.8
2019-03-21T18:12:02.167Z,1032.8
2019-03-21T18:13:02.449Z,1032.91
2019-03-21T18:14:02.735Z,1032.91
2019-03-21T18:15:01.979Z,1032.91
2019-03-21T18:16:02.168Z,1032.86
2019-03-21T18:17:02.346Z,1032.86
2019-03-21T18:18:02.730Z,1032.86
2019-03-21T18:19:01.803Z,1032.86
2019-03-21T18:20:02.042Z,1032.85
2019-03-21T18:21:02.196Z,1032.85
2019-03-21T18:22:02.418Z,1032.85
2019-03-21T18:23:01.813Z,1032.85
2019-03-21T18:24:01.981Z,1032.9
2019-03-21T18:25:02.250Z,1032.9
2019-03-21T18:26:02.348Z,1032.9
2019-03-21T18:27:02.533Z,1032.9
2019-03-21T18:28:01.872Z,1032.99
2019-03-21T18:29:01.921Z,1032.99
2019-03-21T18:30:02.247Z,1032.99
2019-03-21T18:31:02.551Z,1032.99
2019-03-21T18:32:01.674Z,1032.98
2019-03-21T18:33:01.960Z,1032.98
2019-03-21T18:34:02.186Z,1032.98
2019-03-21T18:35:02.410Z,1032.98
2019-03-21T18:36:02.617Z,1032.98
2019-03-21T18:37:01.853Z,1032.98
2019-03-21T18:38:02.246Z,1032.98
2019-03-21T18:39:02.347Z,1032.98
2019-03-21T18:40:02.579Z,1032.98
2019-03-21T18:41:01.753Z,1032.98
2019-03-21T18:42:01.914Z,1032.98
2019-03-21T18:43:02.139Z,1032.98
2019-03-21T18:44:02.376Z,1032.94
2019-03-21T18:45:02.451Z,1032.94
2019-03-21T18:46:02.501Z,1032.94
2019-03-21T18:47:01.678Z,1032.94
2019-03-21T18:48:01.932Z,1032.99
2019-03-21T18:49:02.133Z,1032.99
2019-03-21T18:50:02.437Z,1032.99
2019-03-21T18:51:02.539Z,1032.99
2019-03-21T18:52:01.871Z,1032.92
2019-03-21T18:53:02.170Z,1032.92
2019-03-21T18:54:02.273Z,1032.92
2019-03-21T18:55:07.403Z,1032.92
2019-03-21T18:56:01.744Z,1032.93
2019-03-21T18:57:02.038Z,1032.93
2019-03-21T18:58:02.213Z,1032.93
2019-03-21T18:59:02.405Z,1032.93
2019-03-21T19:00:03.755Z,1033
2019-03-21T19:01:01.707Z,1033
2019-03-21T19:02:01.983Z,1033
2019-03-21T19:03:02.112Z,1033
2019-03-21T19:04:02.385Z,1032.95
2019-03-21T19:05:02.603Z,1032.95
2019-03-21T19:06:01.846Z,1032.95
2019-03-21T19:07:02.511Z,1032.95
2019-03-21T19:08:02.508Z,1032.93
2019-03-21T19:09:02.597Z,1032.93
2019-03-21T19:10:01.804Z,1032.93
2019-03-21T19:11:02.055Z,1032.93
2019-03-21T19:12:02.366Z,1032.81
2019-03-21T19:13:02.497Z,1032.81
2019-03-21T19:14:02.695Z,1032.81
2019-03-21T19:15:01.882Z,1032.81
2019-03-21T19:16:02.058Z,1032.89
2019-03-21T19:17:02.552Z,1032.89
2019-03-21T19:18:02.505Z,1032.89
2019-03-21T19:19:01.818Z,1032.89
2019-03-21T19:20:02.006Z,1032.88
2019-03-21T19:21:02.227Z,1032.88
2019-03-21T19:22:02.511Z,1032.88
2019-03-21T19:23:01.716Z,1032.88
2019-03-21T19:24:01.947Z,1032.62
2019-03-21T19:25:02.183Z,1032.62
2019-03-21T19:26:02.394Z,1032.62
2019-03-21T19:27:02.474Z,1032.62
2019-03-21T19:28:01.694Z,1032.67
2019-03-21T19:29:01.965Z,1032.67
2019-03-21T19:30:02.414Z,1032.67
2019-03-21T19:31:02.390Z,1032.67
2019-03-21T19:32:02.290Z,1032.65
2019-03-21T19:33:02.520Z,1032.65
2019-03-21T19:34:01.740Z,1032.65
2019-03-21T19:35:02.000Z,1032.65
2019-03-21T19:36:02.343Z,1032.6
2019-03-21T19:37:02.363Z,1032.6
2019-03-21T19:38:02.578Z,1032.6
2019-03-21T19:39:01.939Z,1032.6
2019-03-21T19:40:02.267Z,1032.61
2019-03-21T19:41:02.358Z,1032.61
2019-03-21T19:42:02.520Z,1032.61
2019-03-21T19:43:02.556Z,1032.61
2019-03-21T19:44:01.726Z,1032.52
2019-03-21T19:45:02.660Z,1032.52
2019-03-21T19:46:02.318Z,1032.52
2019-03-21T19:47:02.439Z,1032.52
2019-03-21T19:48:01.722Z,1032.43
2019-03-21T19:49:01.983Z,1032.43
2019-03-21T19:50:02.269Z,1032.43
2019-03-21T19:51:02.827Z,1032.43
2019-03-21T19:52:01.632Z,1032.46
2019-03-21T19:53:01.875Z,1032.46
2019-03-21T19:54:02.224Z,1032.46
2019-03-21T19:55:02.568Z,1032.39
2019-03-21T19:56:09.236Z,1032.39
2019-03-21T19:57:01.976Z,1032.39
2019-03-21T19:58:02.214Z,1032.39
2019-03-21T19:59:02.437Z,1032.38
2019-03-21T20:00:03.364Z,1032.38
2019-03-21T20:01:02.273Z,1032.38
2019-03-21T20:02:02.526Z,1032.38
2019-03-21T20:03:01.793Z,1032.48
2019-03-21T20:04:01.920Z,1032.48
2019-03-21T20:05:02.321Z,1032.48
2019-03-21T20:06:02.418Z,1032.48
2019-03-21T20:07:02.704Z,1032.33
2019-03-21T20:08:01.894Z,1032.33
2019-03-21T20:09:02.021Z,1032.33
2019-03-21T20:10:02.420Z,1032.33
2019-03-21T20:11:02.460Z,1032.38
2019-03-21T20:12:01.759Z,1032.38
2019-03-21T20:13:01.891Z,1032.38
2019-03-21T20:14:04.461Z,1032.38
2019-03-21T20:15:02.346Z,1032.26
2019-03-21T20:16:02.644Z,1032.26
2019-03-21T20:17:01.774Z,1032.26
2019-03-21T20:18:02.062Z,1032.26
2019-03-21T20:19:02.321Z,1032.34
2019-03-21T20:20:02.556Z,1032.34
2019-03-21T20:21:01.751Z,1032.34
2019-03-21T20:22:02.020Z,1032.34
2019-03-21T20:23:02.263Z,1032.33
2019-03-21T20:24:02.384Z,1032.33
2019-03-21T20:25:01.724Z,1032.33
2019-03-21T20:26:01.880Z,1032.33
2019-03-21T20:27:02.182Z,1032.27
2019-03-21T20:28:02.332Z,1032.27
2019-03-21T20:29:02.507Z,1032.27
2019-03-21T20:30:01.760Z,1032.27
2019-03-21T20:31:01.999Z,1032.31
2019-03-21T20:32:02.192Z,1032.31
2019-03-21T20:33:02.066Z,1032.31
2019-03-21T20:34:02.260Z,1032.31
2019-03-21T20:35:02.570Z,1032.2
2019-03-21T20:36:01.810Z,1032.2
2019-03-21T20:37:02.083Z,1032.2
2019-03-21T20:38:02.440Z,1032.2
2019-03-21T20:39:02.521Z,1032.2
2019-03-21T20:40:01.734Z,1032.2
2019-03-21T20:41:01.932Z,1032.2
2019-03-21T20:42:02.184Z,1032.2
2019-03-21T20:43:02.464Z,1032.1
2019-03-21T20:44:01.807Z,1032.1
2019-03-21T20:45:02.036Z,1032.1
2019-03-21T20:46:02.126Z,1032.1
2019-03-21T20:47:02.352Z,1032.22
2019-03-21T20:48:02.472Z,1032.22
2019-03-21T20:49:01.810Z,1032.22
2019-03-21T20:50:02.012Z,1032.22
2019-03-21T20:51:02.115Z,1032.1
2019-03-21T20:52:02.392Z,1032.1
2019-03-21T20:53:02.605Z,1032.1